Terminal Aerodrome Forecast
Issued by NWS

Home | Current Version | Previous Version | Text Only | Print | Product List | Glossary On
Versions: 1 2 3 4 5 6 7 8 9 10 11 12 13 14 15 16 17 18
000
FTUS43 KAPX 192300
TAFAPN
TAF
KAPN 192327Z 2000/2024 13008KT P6SM BKN250
     FM200500 14005KT P6SM BKN250 WS015/18030KT
     FM201100 15006KT P6SM BKN120 WS010/19030KT
     FM201700 17010KT 6SM -RA SCT050 OVC090=

USA.gov is the U.S. government's official web portal to all federal, state and local government web resources and services.